Terminal Aerodrome Forecast
Issued by NWS

Home | Current Version | Previous Version | Text Only | Print | Product List | Glossary On
Versions: 1 2 3 4 5 6 7 8 9 10 11 12 13 14 15
000
FTPA31 PHFO 250522
TAFMDY
TAF
PMDY 250522Z 2506/2606 33003KT P6SM VCSH SCT018 BKN035 BKN070
     FM251000 03012KT 6SM SHRA SCT013 BKN025 OVC050
      TEMPO 2510/2512 3SM SHRA BR BKN013 OVC025
     FM251300 03015KT P6SM VCSH FEW020 SCT040=

USA.gov is the U.S. government's official web portal to all federal, state and local government web resources and services.